createdAt,value
2023-04-30T00:00:57.369Z,10.90
2023-04-30T00:01:57.396Z,11.10
2023-04-30T00:02:57.502Z,11.00
2023-04-30T00:03:57.383Z,11.00
2023-04-30T00:04:57.309Z,11.60
2023-04-30T00:05:57.337Z,11.00
2023-04-30T00:06:57.296Z,11.10
2023-04-30T00:07:57.291Z,11.10
2023-04-30T00:08:57.248Z,11.40
2023-04-30T00:09:57.392Z,11.50
2023-04-30T00:10:57.231Z,11.90
2023-04-30T00:11:57.208Z,11.30
2023-04-30T00:12:57.251Z,11.60
2023-04-30T00:13:57.208Z,11.30
2023-04-30T00:14:57.186Z,11.20
2023-04-30T00:15:57.181Z,10.80
2023-04-30T00:16:57.203Z,11.20
2023-04-30T00:17:57.294Z,11.50
2023-04-30T00:18:57.117Z,11.10
2023-04-30T00:19:57.295Z,11.60
2023-04-30T00:20:57.106Z,11.60
2023-04-30T00:21:57.102Z,11.70
2023-04-30T00:22:57.100Z,11.50
2023-04-30T00:23:57.047Z,11.80
2023-04-30T00:24:57.047Z,11.60
2023-04-30T00:25:57.025Z,12.40
2023-04-30T00:26:57.020Z,11.70
2023-04-30T00:27:57.045Z,11.70
2023-04-30T00:28:56.988Z,12.00
2023-04-30T00:29:56.983Z,11.70
2023-04-30T00:30:56.971Z,11.60
2023-04-30T00:31:56.997Z,11.90
2023-04-30T00:32:57.066Z,12.00
2023-04-30T00:33:56.923Z,12.10
2023-04-30T00:34:56.916Z,12.30
2023-04-30T00:35:56.904Z,11.90
2023-04-30T00:36:56.877Z,12.10
2023-04-30T00:37:56.923Z,12.40
2023-04-30T00:38:56.850Z,12.60
2023-04-30T00:39:57.137Z,12.20
2023-04-30T00:40:56.828Z,11.90
2023-04-30T00:41:56.812Z,12.00
2023-04-30T00:42:56.812Z,12.80
2023-04-30T00:43:56.791Z,12.60
2023-04-30T00:44:56.759Z,12.50
2023-04-30T00:45:56.815Z,12.40
2023-04-30T00:46:56.738Z,12.70
2023-04-30T00:47:56.797Z,12.50
2023-04-30T00:48:56.735Z,12.90
2023-04-30T00:49:56.985Z,13.50
2023-04-30T00:50:56.714Z,13.10
2023-04-30T00:51:56.685Z,13.10
2023-04-30T00:52:56.684Z,12.70
2023-04-30T00:53:56.659Z,13.40
2023-04-30T00:54:56.655Z,13.40
2023-04-30T00:55:56.639Z,12.90
2023-04-30T00:56:56.605Z,12.70
2023-04-30T00:57:56.609Z,13.40
2023-04-30T00:58:56.592Z,13.00
2023-04-30T00:59:56.756Z,13.30
2023-04-30T01:00:56.608Z,13.80
2023-04-30T01:01:56.559Z,14.20
2023-04-30T01:02:56.641Z,13.60
2023-04-30T01:03:56.531Z,14.00
2023-04-30T01:04:56.521Z,13.80
2023-04-30T01:05:56.583Z,13.90
2023-04-30T01:06:56.480Z,14.00
2023-04-30T01:07:56.479Z,14.60
2023-04-30T01:08:56.438Z,13.70
2023-04-30T01:09:56.610Z,14.00
2023-04-30T01:10:56.436Z,14.60
2023-04-30T01:11:56.410Z,14.40
2023-04-30T01:12:56.422Z,14.50
2023-04-30T01:13:56.386Z,14.10
2023-04-30T01:14:56.408Z,13.80
2023-04-30T01:15:56.410Z,14.00
2023-04-30T01:16:56.357Z,13.60
2023-04-30T01:17:56.567Z,13.90
2023-04-30T01:18:56.526Z,13.90
2023-04-30T01:19:56.351Z,13.90
2023-04-30T01:20:56.297Z,14.40
2023-04-30T01:21:56.279Z,14.40
2023-04-30T01:22:56.269Z,15.40
2023-04-30T01:23:56.287Z,14.80
2023-04-30T01:24:56.233Z,14.90
2023-04-30T01:25:56.359Z,14.70
2023-04-30T01:26:56.210Z,15.60
2023-04-30T01:27:56.226Z,15.50
2023-04-30T01:28:56.194Z,15.50
2023-04-30T01:29:56.483Z,15.30
2023-04-30T01:30:56.178Z,15.40
2023-04-30T01:31:56.151Z,15.30
2023-04-30T01:32:56.177Z,15.50
2023-04-30T01:33:56.128Z,15.30
2023-04-30T01:34:56.120Z,16.10
2023-04-30T01:35:56.098Z,15.50
2023-04-30T01:36:56.076Z,15.70
2023-04-30T01:37:56.115Z,14.90
2023-04-30T01:38:56.048Z,15.50
2023-04-30T01:39:56.530Z,15.60
2023-04-30T01:40:56.022Z,15.70
2023-04-30T01:41:56.023Z,15.00
2023-04-30T01:42:56.006Z,15.50
2023-04-30T01:43:55.984Z,14.60
2023-04-30T01:44:55.977Z,15.50
2023-04-30T01:45:56.033Z,15.70
2023-04-30T01:46:55.945Z,15.70
2023-04-30T01:47:55.986Z,16.60
2023-04-30T01:48:55.966Z,16.30
2023-04-30T01:49:56.212Z,16.30
2023-04-30T01:50:55.899Z,16.10
2023-04-30T01:51:55.888Z,16.80
2023-04-30T01:52:55.878Z,17.70
2023-04-30T01:53:55.859Z,17.20
2023-04-30T01:54:55.845Z,17.40
2023-04-30T01:55:55.829Z,16.30
2023-04-30T01:56:55.806Z,16.70
2023-04-30T01:57:55.840Z,17.10
2023-04-30T01:58:55.792Z,16.40
2023-04-30T01:59:56.030Z,17.20
2023-04-30T02:00:55.760Z,16.70
2023-04-30T02:01:55.782Z,17.40
2023-04-30T02:02:55.917Z,17.50
2023-04-30T02:03:55.835Z,17.20
2023-04-30T02:04:55.710Z,17.70
2023-04-30T02:05:55.741Z,16.90
2023-04-30T02:06:55.726Z,17.40
2023-04-30T02:07:55.673Z,16.80
2023-04-30T02:08:55.682Z,17.70
2023-04-30T02:09:55.867Z,17.00
2023-04-30T02:10:55.628Z,17.40
2023-04-30T02:11:55.646Z,18.20
2023-04-30T02:12:55.601Z,17.20
2023-04-30T02:13:55.603Z,17.70
2023-04-30T02:14:55.570Z,17.80
2023-04-30T02:15:55.606Z,17.50
2023-04-30T02:16:55.554Z,17.70
2023-04-30T02:17:55.598Z,18.10
2023-04-30T02:18:55.548Z,17.50
2023-04-30T02:19:55.757Z,18.80
2023-04-30T02:20:55.489Z,19.00
2023-04-30T02:21:55.536Z,18.80
2023-04-30T02:22:55.465Z,19.10
2023-04-30T02:23:55.486Z,19.30
2023-04-30T02:24:55.438Z,19.70
2023-04-30T02:25:55.429Z,18.60
2023-04-30T02:26:55.430Z,17.80
2023-04-30T02:27:55.433Z,18.90
2023-04-30T02:28:55.380Z,19.20
2023-04-30T02:29:55.606Z,19.80
2023-04-30T02:30:55.353Z,19.40
2023-04-30T02:31:55.402Z,19.00
2023-04-30T02:32:55.383Z,19.90
2023-04-30T02:33:55.326Z,18.90
2023-04-30T02:34:55.313Z,19.60
2023-04-30T02:35:55.324Z,20.20
2023-04-30T02:36:55.304Z,20.00
2023-04-30T02:37:55.268Z,20.80
2023-04-30T02:38:55.255Z,20.10
2023-04-30T02:39:55.509Z,20.70
2023-04-30T02:40:55.233Z,21.10
2023-04-30T02:41:55.239Z,20.80
2023-04-30T02:42:55.236Z,20.90
2023-04-30T02:43:55.213Z,20.70
2023-04-30T02:44:55.178Z,19.80
2023-04-30T02:45:55.224Z,20.70
2023-04-30T02:46:55.172Z,21.30
2023-04-30T02:47:55.174Z,21.60
2023-04-30T02:48:55.114Z,21.70
2023-04-30T02:49:55.452Z,20.90
2023-04-30T02:50:55.097Z,21.80
2023-04-30T02:51:55.101Z,21.20
2023-04-30T02:52:55.118Z,21.50
2023-04-30T02:53:55.052Z,21.80
2023-04-30T02:54:55.047Z,20.90
2023-04-30T02:55:55.042Z,20.80
2023-04-30T02:56:55.003Z,21.20
2023-04-30T02:57:55.076Z,20.50
2023-04-30T02:58:54.994Z,21.30
2023-04-30T02:59:55.259Z,21.70
2023-04-30T03:00:54.982Z,22.60
2023-04-30T03:01:54.986Z,22.90
2023-04-30T03:02:54.973Z,21.40
2023-04-30T03:03:54.944Z,23.70
2023-04-30T03:04:54.911Z,23.80
2023-04-30T03:05:54.919Z,23.30
2023-04-30T03:06:54.928Z,24.50
2023-04-30T03:07:54.952Z,22.60
2023-04-30T03:08:54.856Z,23.20
2023-04-30T03:09:55.055Z,24.30
2023-04-30T03:10:54.825Z,23.00
2023-04-30T03:11:54.853Z,23.70
2023-04-30T03:12:54.808Z,23.00
2023-04-30T03:13:54.840Z,23.20
2023-04-30T03:14:54.776Z,24.10
2023-04-30T03:15:54.771Z,23.90
2023-04-30T03:16:54.784Z,23.20
2023-04-30T03:17:54.786Z,24.10
2023-04-30T03:18:54.743Z,24.80
2023-04-30T03:19:54.975Z,25.60
2023-04-30T03:20:54.694Z,25.70
2023-04-30T03:21:54.744Z,25.90
2023-04-30T03:22:54.820Z,25.90
2023-04-30T03:23:54.660Z,25.50
2023-04-30T03:24:54.642Z,25.90
2023-04-30T03:25:54.646Z,25.70
2023-04-30T03:26:54.644Z,26.20
2023-04-30T03:27:54.637Z,25.30
2023-04-30T03:28:54.594Z,24.70
2023-04-30T03:29:54.832Z,26.00
2023-04-30T03:30:54.573Z,25.80
2023-04-30T03:31:54.661Z,25.20
2023-04-30T03:32:54.626Z,25.10
2023-04-30T03:33:54.569Z,26.10
2023-04-30T03:34:54.529Z,25.90
2023-04-30T03:35:54.514Z,26.20
2023-04-30T03:36:54.533Z,27.80
2023-04-30T03:37:54.536Z,26.10
2023-04-30T03:38:54.474Z,26.50
2023-04-30T03:39:54.663Z,26.60
2023-04-30T03:40:54.461Z,26.80
2023-04-30T03:41:54.432Z,27.60
2023-04-30T03:42:54.421Z,28.10
2023-04-30T03:43:54.426Z,26.20
2023-04-30T03:44:54.382Z,25.90
2023-04-30T03:45:54.410Z,27.10
2023-04-30T03:46:54.388Z,25.90
2023-04-30T03:47:54.374Z,25.30
2023-04-30T03:48:54.359Z,26.80
2023-04-30T03:49:54.650Z,26.20
2023-04-30T03:50:54.317Z,27.00
2023-04-30T03:51:54.327Z,27.70
2023-04-30T03:52:54.290Z,26.50
2023-04-30T03:53:54.297Z,27.20
2023-04-30T03:54:54.262Z,27.30
2023-04-30T03:55:54.274Z,26.80
2023-04-30T03:56:54.256Z,28.80
2023-04-30T03:57:54.224Z,28.50
2023-04-30T03:58:54.212Z,28.30
2023-04-30T03:59:54.514Z,29.70
2023-04-30T04:00:54.221Z,28.80
2023-04-30T04:01:54.193Z,29.10
2023-04-30T04:02:54.182Z,28.30
2023-04-30T04:03:54.158Z,29.90
2023-04-30T04:04:54.151Z,31.00
2023-04-30T04:05:54.175Z,30.70
2023-04-30T04:06:54.116Z,31.00
2023-04-30T04:07:54.101Z,31.10
2023-04-30T04:08:54.081Z,29.20
2023-04-30T04:09:54.268Z,30.00
2023-04-30T04:10:54.052Z,31.00
2023-04-30T04:11:54.058Z,30.50
2023-04-30T04:12:54.032Z,30.40
2023-04-30T04:13:54.028Z,30.50
2023-04-30T04:14:53.983Z,29.10
2023-04-30T04:15:54.029Z,29.90
2023-04-30T04:16:53.983Z,30.30
2023-04-30T04:17:54.030Z,28.80
2023-04-30T04:18:53.945Z,29.50
2023-04-30T04:19:54.124Z,28.90
2023-04-30T04:20:53.936Z,29.00
2023-04-30T04:21:53.929Z,28.50
2023-04-30T04:22:53.934Z,29.70
2023-04-30T04:23:53.925Z,31.00
2023-04-30T04:24:53.857Z,31.20
2023-04-30T04:25:53.856Z,31.40
2023-04-30T04:26:53.851Z,30.90
2023-04-30T04:27:53.835Z,29.50
2023-04-30T04:28:53.806Z,29.70
2023-04-30T04:29:54.024Z,29.10
2023-04-30T04:30:53.787Z,29.50
2023-04-30T04:31:53.822Z,28.90
2023-04-30T04:32:53.940Z,28.30
2023-04-30T04:33:53.752Z,28.50
2023-04-30T04:34:53.740Z,28.20
2023-04-30T04:35:53.802Z,28.30
2023-04-30T04:36:53.731Z,36.60
2023-04-30T04:37:53.696Z,30.90
2023-04-30T04:38:53.701Z,32.40
2023-04-30T04:39:53.952Z,33.50
2023-04-30T04:40:53.671Z,30.40
2023-04-30T04:41:53.678Z,28.30
2023-04-30T04:42:53.616Z,28.10
2023-04-30T04:43:53.609Z,28.30
2023-04-30T04:44:53.596Z,29.10
2023-04-30T04:45:53.611Z,28.80
2023-04-30T04:46:53.622Z,29.80
2023-04-30T04:47:53.593Z,30.20
2023-04-30T04:48:53.548Z,30.00
2023-04-30T04:49:53.754Z,29.70
2023-04-30T04:50:53.521Z,76.50
2023-04-30T04:51:53.711Z,33.20
2023-04-30T04:52:53.538Z,33.90
2023-04-30T04:53:53.525Z,31.60
2023-04-30T04:54:53.491Z,31.70
2023-04-30T04:55:53.650Z,32.90
2023-04-30T04:56:53.536Z,31.00
2023-04-30T04:57:53.417Z,31.80
2023-04-30T04:58:53.422Z,32.00
2023-04-30T04:59:53.550Z,32.30
2023-04-30T05:00:53.392Z,32.50
2023-04-30T05:01:53.533Z,33.10
2023-04-30T05:02:53.536Z,33.00
2023-04-30T05:03:53.428Z,33.30
2023-04-30T05:04:53.345Z,33.20
2023-04-30T05:05:53.366Z,33.20
2023-04-30T05:06:53.524Z,31.30
2023-04-30T05:07:53.297Z,33.40
2023-04-30T05:08:53.289Z,33.10
2023-04-30T05:09:53.484Z,32.40
2023-04-30T05:10:53.260Z,32.70
2023-04-30T05:11:53.257Z,33.90
2023-04-30T05:12:53.257Z,34.60
2023-04-30T05:13:53.253Z,33.80
2023-04-30T05:14:53.220Z,32.40
2023-04-30T05:15:53.254Z,31.60
2023-04-30T05:16:53.188Z,32.50
2023-04-30T05:17:53.220Z,31.10
2023-04-30T05:18:53.177Z,29.60
2023-04-30T05:19:53.328Z,28.40
2023-04-30T05:20:53.121Z,27.90
2023-04-30T05:21:53.141Z,28.00
2023-04-30T05:22:53.098Z,27.80
2023-04-30T05:23:53.097Z,27.20
2023-04-30T05:24:53.126Z,26.10
2023-04-30T05:25:53.074Z,25.40
2023-04-30T05:26:53.039Z,25.40
2023-04-30T05:27:53.082Z,25.50
2023-04-30T05:28:53.035Z,25.00
2023-04-30T05:29:53.175Z,25.30
2023-04-30T05:30:53.108Z,24.50
2023-04-30T05:31:53.041Z,24.70
2023-04-30T05:32:53.044Z,24.60
2023-04-30T05:33:52.998Z,23.80
2023-04-30T05:34:52.934Z,23.80
2023-04-30T05:35:52.962Z,23.30
2023-04-30T05:36:52.940Z,23.50
2023-04-30T05:37:52.914Z,22.50
2023-04-30T05:38:52.882Z,22.90
2023-04-30T05:39:53.184Z,23.80
2023-04-30T05:40:52.930Z,23.00
2023-04-30T05:41:53.465Z,23.40
2023-04-30T05:42:52.842Z,23.10
2023-04-30T05:43:52.831Z,23.80
2023-04-30T05:44:52.823Z,22.40
2023-04-30T05:45:52.849Z,21.50
2023-04-30T05:46:52.796Z,21.40
2023-04-30T05:47:52.776Z,21.40
2023-04-30T05:48:52.770Z,21.20
2023-04-30T05:49:52.936Z,21.70
2023-04-30T05:50:52.745Z,21.60
2023-04-30T05:51:52.726Z,22.30
2023-04-30T05:52:52.710Z,21.80
2023-04-30T05:53:52.703Z,21.30
2023-04-30T05:54:52.707Z,20.90
2023-04-30T05:55:52.686Z,20.80
2023-04-30T05:56:52.661Z,20.50
2023-04-30T05:57:52.639Z,21.80
2023-04-30T05:58:52.699Z,20.40
2023-04-30T05:59:52.813Z,20.60
2023-04-30T06:00:52.644Z,19.60
2023-04-30T06:01:52.676Z,20.00
2023-04-30T06:02:52.632Z,20.50
2023-04-30T06:03:52.566Z,20.30
2023-04-30T06:04:52.609Z,19.80
2023-04-30T06:05:52.567Z,19.60
2023-04-30T06:06:52.526Z,19.30
2023-04-30T06:07:52.522Z,20.50
2023-04-30T06:08:52.497Z,19.30
2023-04-30T06:09:52.883Z,19.30
2023-04-30T06:10:52.515Z,18.70
2023-04-30T06:11:52.470Z,19.00
2023-04-30T06:12:52.434Z,19.20
2023-04-30T06:13:52.423Z,18.80
2023-04-30T06:14:52.416Z,18.50
2023-04-30T06:15:52.398Z,19.10
2023-04-30T06:16:52.546Z,18.30
2023-04-30T06:17:52.390Z,18.20
2023-04-30T06:18:53.861Z,18.40
2023-04-30T06:19:52.587Z,18.20
2023-04-30T06:20:52.344Z,17.50
2023-04-30T06:21:52.401Z,17.10
2023-04-30T06:22:52.522Z,17.80
2023-04-30T06:23:52.285Z,17.50
2023-04-30T06:24:52.286Z,17.30
2023-04-30T06:25:52.296Z,17.30
2023-04-30T06:26:52.259Z,17.00
2023-04-30T06:27:52.233Z,16.90
2023-04-30T06:28:52.214Z,17.40
2023-04-30T06:29:52.409Z,17.20
2023-04-30T06:30:52.243Z,16.80
2023-04-30T06:31:52.241Z,16.90
2023-04-30T06:32:52.274Z,16.80
2023-04-30T06:33:52.172Z,16.80
2023-04-30T06:34:52.150Z,16.70
2023-04-30T06:35:52.151Z,16.40
2023-04-30T06:36:52.133Z,16.90
2023-04-30T06:37:52.099Z,16.00
2023-04-30T06:38:52.087Z,16.10
2023-04-30T06:39:52.107Z,16.00
2023-04-30T06:40:52.097Z,15.90
2023-04-30T06:41:52.048Z,15.20
2023-04-30T06:42:52.047Z,15.60
2023-04-30T06:43:52.035Z,16.20
2023-04-30T06:44:52.013Z,15.70
2023-04-30T06:45:52.041Z,15.70
2023-04-30T06:46:51.997Z,15.40
2023-04-30T06:47:52.123Z,15.80
2023-04-30T06:48:51.982Z,15.40
2023-04-30T06:49:52.143Z,14.90
2023-04-30T06:50:52.009Z,16.00
2023-04-30T06:51:51.916Z,15.70
2023-04-30T06:52:51.907Z,14.50
2023-04-30T06:53:51.891Z,15.10
2023-04-30T06:54:51.877Z,15.30
2023-04-30T06:55:51.889Z,15.30
2023-04-30T06:56:51.905Z,14.90
2023-04-30T06:57:51.844Z,14.30
2023-04-30T06:58:51.875Z,14.60
2023-04-30T06:59:52.004Z,14.20
2023-04-30T07:00:51.838Z,15.10
2023-04-30T07:01:51.835Z,14.30
2023-04-30T07:02:51.890Z,14.90
2023-04-30T07:03:51.856Z,14.60
2023-04-30T07:04:51.755Z,14.80
2023-04-30T07:05:51.750Z,13.20
2023-04-30T07:06:51.772Z,14.70
2023-04-30T07:07:51.705Z,14.00
2023-04-30T07:08:51.687Z,14.30
2023-04-30T07:09:51.920Z,13.90
2023-04-30T07:10:51.672Z,13.90
2023-04-30T07:11:51.673Z,13.70
2023-04-30T07:12:51.647Z,13.70
2023-04-30T07:13:51.616Z,13.50
2023-04-30T07:14:51.613Z,13.60
2023-04-30T07:15:51.681Z,14.00
2023-04-30T07:16:51.582Z,13.00
2023-04-30T07:17:51.614Z,13.20
2023-04-30T07:18:51.564Z,13.10
2023-04-30T07:19:51.560Z,12.90
2023-04-30T07:20:51.572Z,12.80
2023-04-30T07:21:51.530Z,13.80
2023-04-30T07:22:51.548Z,13.00
2023-04-30T07:23:51.649Z,13.40
2023-04-30T07:24:51.475Z,12.50
2023-04-30T07:25:51.484Z,12.50
2023-04-30T07:26:51.547Z,12.60
2023-04-30T07:27:51.448Z,11.90
2023-04-30T07:28:51.424Z,12.40
2023-04-30T07:29:51.406Z,12.20
2023-04-30T07:30:51.420Z,12.20
2023-04-30T07:31:51.403Z,12.30
2023-04-30T07:32:51.413Z,12.20
2023-04-30T07:33:51.337Z,11.80
2023-04-30T07:34:51.351Z,11.90
2023-04-30T07:35:51.362Z,11.70
2023-04-30T07:36:51.327Z,12.20
2023-04-30T07:37:51.328Z,11.90
2023-04-30T07:38:51.310Z,12.00
2023-04-30T07:39:51.287Z,11.50
2023-04-30T07:40:51.265Z,11.50
2023-04-30T07:41:51.270Z,10.60
2023-04-30T07:42:51.241Z,11.20
2023-04-30T07:43:51.232Z,11.70
2023-04-30T07:44:51.212Z,11.10
2023-04-30T07:45:51.253Z,10.70
2023-04-30T07:46:51.170Z,11.40
2023-04-30T07:47:51.366Z,11.20
2023-04-30T07:48:51.162Z,10.60
2023-04-30T07:49:51.142Z,11.40
2023-04-30T07:50:52.893Z,10.70
2023-04-30T07:51:51.123Z,16.10
2023-04-30T07:52:51.096Z,59.40
2023-04-30T07:53:51.086Z,12.70
2023-04-30T07:54:51.088Z,12.50
2023-04-30T07:55:51.089Z,11.30
2023-04-30T07:56:51.044Z,11.60
2023-04-30T07:57:51.054Z,11.10
2023-04-30T07:58:51.018Z,11.10
2023-04-30T07:59:52.395Z,10.70
2023-04-30T08:00:51.025Z,11.70
2023-04-30T08:01:51.028Z,10.30
2023-04-30T08:02:51.257Z,10.90
2023-04-30T08:03:51.043Z,9.60
2023-04-30T08:04:50.953Z,10.40
2023-04-30T08:05:50.958Z,9.80
2023-04-30T08:06:51.091Z,11.60
2023-04-30T08:07:50.923Z,10.50
2023-04-30T08:08:50.892Z,9.40
2023-04-30T08:09:50.880Z,19.10
2023-04-30T08:10:50.862Z,9.70
2023-04-30T08:11:50.870Z,22.30
2023-04-30T08:12:50.846Z,17.20
2023-04-30T08:13:50.830Z,17.10
2023-04-30T08:14:50.818Z,16.20
2023-04-30T08:15:50.816Z,9.40
2023-04-30T08:16:50.848Z,10.40
2023-04-30T08:17:50.847Z,10.20
2023-04-30T08:18:50.767Z,9.30
2023-04-30T08:19:50.787Z,11.20
2023-04-30T08:20:50.981Z,18.60
2023-04-30T08:21:50.724Z,18.70
2023-04-30T08:22:50.707Z,13.00
2023-04-30T08:23:50.690Z,9.80
2023-04-30T08:24:50.715Z,9.00
2023-04-30T08:25:50.689Z,9.50
2023-04-30T08:26:51.214Z,10.60
2023-04-30T08:27:50.637Z,9.40
2023-04-30T08:28:50.635Z,8.70
2023-04-30T08:29:50.622Z,12.00
2023-04-30T08:30:50.695Z,12.90
2023-04-30T08:31:50.647Z,9.20
2023-04-30T08:32:50.630Z,8.80
2023-04-30T08:33:50.568Z,8.60
2023-04-30T08:34:50.558Z,9.20
2023-04-30T08:35:50.544Z,7.40
2023-04-30T08:36:50.517Z,7.40
2023-04-30T08:37:50.509Z,7.90
2023-04-30T08:38:50.501Z,7.30
2023-04-30T08:39:50.487Z,7.80
2023-04-30T08:40:51.926Z,6.10
2023-04-30T08:41:50.466Z,6.50
2023-04-30T08:42:50.443Z,6.50
2023-04-30T08:43:50.435Z,6.70
2023-04-30T08:44:50.408Z,7.70
2023-04-30T08:45:50.418Z,7.10
2023-04-30T08:46:50.408Z,7.00
2023-04-30T08:47:50.381Z,7.00
2023-04-30T08:48:50.357Z,6.50
2023-04-30T08:49:50.345Z,6.10
2023-04-30T08:50:50.340Z,5.80
2023-04-30T08:51:50.337Z,5.50
2023-04-30T08:52:50.302Z,6.10
2023-04-30T08:53:50.274Z,5.80
2023-04-30T08:54:50.282Z,6.20
2023-04-30T08:55:50.266Z,5.10
2023-04-30T08:56:50.280Z,5.30
2023-04-30T08:57:50.252Z,4.80
2023-04-30T08:58:50.244Z,5.00
2023-04-30T08:59:50.220Z,5.10
2023-04-30T09:00:50.229Z,4.40
2023-04-30T09:01:52.182Z,5.70
2023-04-30T09:02:50.286Z,10.00
2023-04-30T09:03:50.234Z,8.40
2023-04-30T09:04:50.136Z,8.40
2023-04-30T09:05:50.135Z,5.10
2023-04-30T09:06:50.225Z,5.50
2023-04-30T09:08:01.536Z,5.00
2023-04-30T09:08:51.089Z,8.90
2023-04-30T09:09:50.081Z,7.60
2023-04-30T09:10:50.068Z,13.10
2023-04-30T09:11:50.048Z,16.80
2023-04-30T09:12:50.034Z,10.90
2023-04-30T09:13:50.025Z,5.70
2023-04-30T09:14:50.009Z,17.10
2023-04-30T09:15:50.040Z,6.80
2023-04-30T09:16:49.996Z,15.80
2023-04-30T09:17:49.986Z,34.10
2023-04-30T09:18:49.948Z,6.90
2023-04-30T09:19:49.943Z,5.70
2023-04-30T09:20:49.942Z,7.00
2023-04-30T09:21:49.921Z,5.60
2023-04-30T09:22:49.897Z,5.30
2023-04-30T09:23:49.891Z,5.30
2023-04-30T09:24:49.875Z,4.50
2023-04-30T09:25:49.900Z,4.80
2023-04-30T09:26:49.854Z,4.50
2023-04-30T09:27:49.843Z,3.00
2023-04-30T09:28:49.822Z,2.50
2023-04-30T09:29:49.814Z,2.60
2023-04-30T09:30:49.796Z,2.60
2023-04-30T09:31:49.845Z,2.60
2023-04-30T09:32:49.815Z,2.70
2023-04-30T09:33:49.754Z,2.70
2023-04-30T09:34:49.745Z,3.20
2023-04-30T09:35:49.746Z,3.70
2023-04-30T09:36:49.720Z,3.30
2023-04-30T09:37:49.706Z,2.90
2023-04-30T09:38:49.681Z,2.90
2023-04-30T09:39:49.683Z,2.80
2023-04-30T09:40:49.661Z,2.80
2023-04-30T09:41:49.677Z,2.90
2023-04-30T09:42:49.631Z,5.10
2023-04-30T09:43:49.628Z,17.40
2023-04-30T09:44:49.606Z,7.80
2023-04-30T09:45:49.598Z,6.30
2023-04-30T09:46:49.625Z,5.30
2023-04-30T09:47:49.631Z,5.40
2023-04-30T09:48:49.557Z,6.00
2023-04-30T09:49:49.550Z,6.20
2023-04-30T09:50:49.530Z,5.70
2023-04-30T09:51:49.542Z,4.60
2023-04-30T09:52:49.517Z,6.50
2023-04-30T09:53:49.520Z,5.00
2023-04-30T09:54:49.506Z,5.50
2023-04-30T09:55:49.498Z,4.90
2023-04-30T09:56:49.469Z,6.20
2023-04-30T09:57:49.440Z,5.30
2023-04-30T09:58:49.415Z,4.60
2023-04-30T09:59:49.420Z,4.50
2023-04-30T10:00:49.460Z,4.20
2023-04-30T10:01:49.400Z,4.10
2023-04-30T10:02:49.429Z,4.10
2023-04-30T10:03:49.418Z,4.00
2023-04-30T10:04:49.358Z,3.50
2023-04-30T10:05:49.372Z,3.20
2023-04-30T10:06:49.362Z,3.30
2023-04-30T10:07:49.320Z,3.20
2023-04-30T10:08:49.293Z,8.80
2023-04-30T10:09:49.282Z,6.20
2023-04-30T10:10:49.281Z,3.50
2023-04-30T10:11:49.272Z,4.00
2023-04-30T10:12:49.231Z,3.40
2023-04-30T10:13:49.225Z,3.60
2023-04-30T10:14:49.231Z,3.40
2023-04-30T10:15:49.205Z,3.80
2023-04-30T10:16:49.233Z,3.50
2023-04-30T10:17:49.204Z,3.30
2023-04-30T10:18:49.160Z,3.70
2023-04-30T10:19:49.145Z,4.20
2023-04-30T10:20:49.132Z,3.70
2023-04-30T10:21:49.134Z,3.70
2023-04-30T10:22:49.125Z,3.60
2023-04-30T10:23:49.109Z,3.50
2023-04-30T10:24:49.070Z,3.60
2023-04-30T10:25:49.094Z,3.20
2023-04-30T10:26:49.055Z,3.30
2023-04-30T10:27:49.035Z,3.50
2023-04-30T10:28:49.026Z,4.50
2023-04-30T10:29:49.029Z,4.10
2023-04-30T10:30:49.014Z,5.20
2023-04-30T10:31:49.034Z,3.50
2023-04-30T10:32:49.043Z,5.70
2023-04-30T10:33:48.958Z,3.00
2023-04-30T10:34:48.962Z,3.10
2023-04-30T10:35:48.954Z,3.00
2023-04-30T10:36:48.982Z,3.20
2023-04-30T10:37:48.903Z,2.90
2023-04-30T10:38:48.889Z,2.90
2023-04-30T10:39:48.874Z,2.70
2023-04-30T10:40:48.883Z,2.40
2023-04-30T10:41:48.856Z,2.20
2023-04-30T10:42:48.828Z,2.50
2023-04-30T10:43:48.821Z,2.40
2023-04-30T10:44:48.807Z,2.30
2023-04-30T10:45:48.816Z,2.10
2023-04-30T10:46:48.780Z,2.50
2023-04-30T10:47:48.824Z,2.70
2023-04-30T10:48:48.807Z,2.50
2023-04-30T10:49:48.749Z,2.30
2023-04-30T10:50:48.788Z,2.60
2023-04-30T10:51:48.741Z,2.30
2023-04-30T10:52:48.708Z,3.00
2023-04-30T10:53:48.694Z,2.60
2023-04-30T10:54:48.674Z,2.90
2023-04-30T10:55:48.711Z,2.60
2023-04-30T10:56:48.656Z,2.50
2023-04-30T10:57:48.632Z,2.20
2023-04-30T10:58:48.624Z,2.30
2023-04-30T10:59:48.621Z,2.00
2023-04-30T11:00:48.637Z,2.00
2023-04-30T11:01:48.634Z,2.20
2023-04-30T11:02:48.607Z,2.30
2023-04-30T11:03:48.561Z,2.60
2023-04-30T11:04:48.600Z,2.50
2023-04-30T11:05:48.573Z,2.50
2023-04-30T11:06:48.580Z,2.50
2023-04-30T11:07:48.512Z,2.40
2023-04-30T11:08:48.493Z,2.20
2023-04-30T11:09:48.525Z,2.30
2023-04-30T11:10:48.476Z,2.10
2023-04-30T11:11:48.466Z,2.30
2023-04-30T11:12:48.458Z,2.80
2023-04-30T11:13:48.440Z,2.60
2023-04-30T11:14:48.404Z,2.80
2023-04-30T11:15:48.563Z,2.60
2023-04-30T11:16:48.385Z,2.60
2023-04-30T11:17:48.418Z,2.50
2023-04-30T11:18:48.375Z,2.10
2023-04-30T11:19:48.365Z,2.10
2023-04-30T11:20:48.356Z,2.20
2023-04-30T11:21:48.327Z,2.20
2023-04-30T11:22:48.315Z,2.60
2023-04-30T11:23:48.302Z,1.80
2023-04-30T11:24:48.320Z,2.10
2023-04-30T11:25:48.293Z,1.80
2023-04-30T11:26:48.266Z,2.00
2023-04-30T11:27:48.251Z,1.90
2023-04-30T11:28:48.279Z,2.30
2023-04-30T11:29:48.249Z,2.00
2023-04-30T11:30:48.218Z,1.90
2023-04-30T11:31:48.249Z,2.00
2023-04-30T11:32:48.254Z,2.10
2023-04-30T11:33:48.177Z,2.20
2023-04-30T11:34:48.168Z,1.90
2023-04-30T11:35:48.172Z,1.90
2023-04-30T11:36:48.145Z,2.00
2023-04-30T11:37:48.133Z,2.30
2023-04-30T11:38:48.116Z,2.10
2023-04-30T11:39:48.110Z,1.80
2023-04-30T11:40:48.070Z,2.00
2023-04-30T11:41:48.074Z,2.20
2023-04-30T11:42:48.054Z,2.20
2023-04-30T11:43:48.073Z,2.20
2023-04-30T11:44:48.058Z,2.20
2023-04-30T11:45:48.016Z,2.00
2023-04-30T11:46:48.060Z,2.10
2023-04-30T11:47:48.119Z,2.30
2023-04-30T11:48:47.991Z,2.20
2023-04-30T11:49:47.971Z,2.40
2023-04-30T11:50:47.989Z,2.40
2023-04-30T11:51:47.938Z,2.10
2023-04-30T11:52:47.929Z,1.90
2023-04-30T11:53:47.920Z,1.60
2023-04-30T11:54:47.956Z,1.70
2023-04-30T11:55:47.888Z,1.40
2023-04-30T11:56:47.872Z,1.40
2023-04-30T11:57:47.858Z,1.30
2023-04-30T11:58:47.850Z,1.90
2023-04-30T11:59:47.841Z,1.60
2023-04-30T12:00:47.901Z,1.80
2023-04-30T12:01:47.851Z,1.90
2023-04-30T12:02:48.120Z,1.70
2023-04-30T12:03:47.905Z,3.10
2023-04-30T12:04:47.793Z,12.70
2023-04-30T12:05:47.772Z,2.40
2023-04-30T12:06:47.820Z,1.70
2023-04-30T12:07:47.733Z,1.60
2023-04-30T12:08:47.712Z,1.50
2023-04-30T12:09:47.744Z,1.70
2023-04-30T12:10:47.708Z,1.50
2023-04-30T12:11:47.678Z,1.60
2023-04-30T12:12:47.673Z,1.50
2023-04-30T12:13:47.660Z,1.70
2023-04-30T12:14:47.638Z,1.80
2023-04-30T12:15:47.650Z,2.00
2023-04-30T12:16:47.688Z,1.70
2023-04-30T12:17:47.624Z,1.80
2023-04-30T12:18:47.607Z,1.70
2023-04-30T12:19:47.587Z,1.90
2023-04-30T12:20:47.585Z,2.30
2023-04-30T12:21:47.553Z,2.00
2023-04-30T12:22:47.542Z,2.20
2023-04-30T12:23:47.533Z,2.00
2023-04-30T12:24:47.529Z,2.20
2023-04-30T12:25:47.529Z,2.00
2023-04-30T12:26:47.479Z,2.00
2023-04-30T12:27:47.484Z,1.90
2023-04-30T12:28:47.464Z,1.90
2023-04-30T12:29:47.463Z,2.10
2023-04-30T12:30:47.453Z,2.00
2023-04-30T12:31:47.482Z,1.90
2023-04-30T12:32:47.450Z,3.00
2023-04-30T12:33:47.403Z,2.10
2023-04-30T12:34:47.392Z,1.80
2023-04-30T12:35:47.376Z,2.20
2023-04-30T12:36:47.353Z,2.20
2023-04-30T12:37:47.344Z,2.20
2023-04-30T12:38:47.344Z,2.20
2023-04-30T12:39:47.340Z,2.10
2023-04-30T12:40:47.303Z,2.00
2023-04-30T12:41:47.296Z,2.30
2023-04-30T12:42:47.297Z,6.70
2023-04-30T12:43:47.267Z,9.10
2023-04-30T12:44:47.244Z,3.70
2023-04-30T12:45:47.302Z,2.10
2023-04-30T12:46:47.528Z,1.90
2023-04-30T12:47:47.254Z,1.90
2023-04-30T12:48:47.197Z,1.90
2023-04-30T12:49:47.176Z,2.10
2023-04-30T12:50:47.190Z,1.80
2023-04-30T12:51:47.169Z,2.10
2023-04-30T12:52:47.138Z,1.90
2023-04-30T12:53:47.213Z,1.70
2023-04-30T12:54:47.122Z,2.00
2023-04-30T12:55:47.119Z,2.00
2023-04-30T12:56:47.090Z,1.80
2023-04-30T12:57:47.081Z,1.80
2023-04-30T12:58:47.059Z,1.70
2023-04-30T12:59:47.062Z,1.70
2023-04-30T13:00:47.102Z,1.80
2023-04-30T13:01:47.057Z,1.80